Time;durP1;ratioP1;P1;durP2;ratioP2;P2;SDS_P1;SDS_P2;PMS_P1;PMS_P2;Temp;Humidity;BMP_temperature;BMP_pressure;BME280_temperature;BME280_humidity;BME280_pressure;Samples;Min_cycle;Max_cycle;Signal;HPM_P1;HPM_P2
2022/04/19 00:00:48;;;;;;;;;15.00;9.25;;;;;13.49;59.19;100937.88;4972675;28;45466;-52
2022/04/19 00:03:15;;;;;;;;;11.25;8.75;;;;;13.46;58.22;100932.75;4976104;28;45465;-52
2022/04/19 00:05:42;;;;;;;;;12.50;10.00;;;;;13.51;58.31;100935.97;4971077;28;46311;-59
2022/04/19 00:08:10;;;;;;;;;19.67;15.67;;;;;13.52;58.49;100932.34;4975240;28;45741;-53
2022/04/19 00:10:35;;;;;;;;;11.75;9.50;;;;;13.53;58.56;100926.03;4968003;28;45458;-55
2022/04/19 00:13:03;;;;;;;;;11.50;11.50;;;;;13.53;57.96;100923.38;4975722;28;45322;-54
2022/04/19 00:15:30;;;;;;;;;11.00;9.67;;;;;13.43;57.91;100919.59;4975231;28;46594;-52
2022/04/19 00:17:56;;;;;;;;;13.25;10.25;;;;;13.49;57.99;100929.88;4974377;28;45325;-52
2022/04/19 00:20:24;;;;;;;;;13.25;11.00;;;;;13.47;57.76;100915.75;4972378;28;45478;-51
2022/04/19 00:22:49;;;;;;;;;8.50;5.75;;;;;13.45;57.08;100920.34;4973767;27;45411;-53
2022/04/19 00:25:16;;;;;;;;;8.75;8.25;;;;;13.46;58.11;100918.53;4972051;28;46182;-50
2022/04/19 00:27:41;;;;;;;;;10.00;8.25;;;;;13.40;57.76;100909.06;4974991;28;45193;-56
2022/04/19 00:30:08;;;;;;;;;14.75;10.00;;;;;13.52;57.48;100924.31;5042906;28;45418;-53
2022/04/19 00:32:34;;;;;;;;;10.25;10.00;;;;;13.57;56.89;100922.25;4971054;28;45190;-54
2022/04/19 00:35:00;;;;;;;;;9.00;9.00;;;;;13.61;56.80;100919.38;4972892;28;45936;-52
2022/04/19 00:37:26;;;;;;;;;8.67;6.67;;;;;13.48;56.58;100917.47;4973054;28;45327;-52
2022/04/19 00:39:52;;;;;;;;;11.50;8.25;;;;;13.44;57.03;100915.09;4975036;28;45377;-53
2022/04/19 00:42:18;;;;;;;;;10.00;10.00;;;;;13.34;56.80;100920.16;4975903;28;45539;-51
2022/04/19 00:44:44;;;;;;;;;13.25;10.00;;;;;13.33;57.09;100921.09;4973169;27;46406;-53
2022/04/19 00:47:10;;;;;;;;;9.00;8.00;;;;;13.31;57.67;100917.66;4974297;28;45448;-53
2022/04/19 00:49:42;;;;;;;;;10.67;8.00;;;;;13.28;57.15;100920.50;4964914;28;45567;-54
2022/04/19 00:52:09;;;;;;;;;8.50;7.25;;;;;13.21;57.36;100924.53;4975872;27;45389;-56
2022/04/19 00:54:34;;;;;;;;;10.50;7.75;;;;;13.13;57.12;100916.09;4975170;28;45419;-58
2022/04/19 00:57:00;;;;;;;;;9.25;8.25;;;;;12.96;57.36;100895.75;4957123;28;45395;-55
2022/04/19 00:59:26;;;;;;;;;8.00;8.00;;;;;13.03;57.33;100904.28;4973822;28;45583;-56
2022/04/19 01:01:51;;;;;;;;;5.25;5.25;;;;;12.94;57.57;100903.88;4974548;28;45567;-54
2022/04/19 01:04:17;;;;;;;;;12.33;7.00;;;;;12.89;58.04;100897.97;4971224;28;46004;-56
2022/04/19 01:06:44;;;;;;;;;7.75;7.00;;;;;12.82;57.52;100901.94;4961080;28;45718;-56
2022/04/19 01:09:09;;;;;;;;;4.00;4.00;;;;;12.71;56.80;100907.06;5015311;28;45355;-56
2022/04/19 01:14:20;;;;;;;;;5.00;3.75;;;;;12.79;57.16;100911.97;4970719;28;45389;-57
2022/04/19 01:16:46;;;;;;;;;11.75;7.00;;;;;12.68;56.34;100907.25;4974837;28;45933;-56
2022/04/19 01:19:15;;;;;;;;;6.75;6.75;;;;;12.66;56.46;100895.81;4974974;28;45539;-55
2022/04/19 01:21:48;;;;;;;;;10.00;6.00;;;;;12.62;56.45;100899.59;4975478;28;45591;-55
2022/04/19 01:24:18;;;;;;;;;6.25;3.75;;;;;12.55;56.04;100893.78;4973399;28;46088;-54
2022/04/19 01:26:45;;;;;;;;;8.00;6.50;;;;;12.47;56.14;100889.84;4974565;28;45357;-54
2022/04/19 01:29:11;;;;;;;;;9.00;6.25;;;;;12.51;55.58;100902.94;4966849;28;45580;-58
2022/04/19 01:31:40;;;;;;;;;6.00;6.00;;;;;12.50;55.34;100890.53;4970674;28;45384;-55
2022/04/19 01:34:06;;;;;;;;;3.75;3.75;;;;;12.45;54.96;100889.09;4974384;28;46151;-55
2022/04/19 01:36:36;;;;;;;;;7.50;7.50;;;;;12.40;55.36;100895.56;4974946;28;45307;-54
2022/04/19 01:39:07;;;;;;;;;7.00;5.75;;;;;12.43;55.65;100885.66;4971651;28;45564;-53
2022/04/19 01:41:33;;;;;;;;;4.50;4.50;;;;;12.44;55.75;100892.69;4973941;28;45252;-53
2022/04/19 01:43:59;;;;;;;;;7.75;4.00;;;;;12.28;55.46;100892.75;4971172;28;46035;-55
2022/04/19 01:46:28;;;;;;;;;6.00;6.00;;;;;12.14;55.97;100888.22;4974690;28;45298;-55
2022/04/19 01:48:57;;;;;;;;;7.25;5.00;;;;;12.13;56.12;100875.84;4974044;27;45383;-52
2022/04/19 01:51:24;;;;;;;;;4.00;4.00;;;;;12.16;55.32;100891.66;4976154;28;45508;-51
2022/04/19 01:53:50;;;;;;;;;7.00;4.00;;;;;11.96;55.86;100874.13;4971065;28;46063;-51
2022/04/19 01:56:15;;;;;;;;;8.00;6.00;;;;;11.96;55.79;100878.59;4974003;28;45367;-55
2022/04/19 01:58:41;;;;;;;;;4.00;4.00;;;;;12.16;55.43;100888.97;4974984;28;45651;-54
2022/04/19 02:01:07;;;;;;;;;3.25;3.25;;;;;11.99;54.99;100878.44;4972847;28;45881;-51
2022/04/19 02:03:34;;;;;;;;;6.00;4.00;;;;;12.03;54.80;100874.63;4973217;28;46249;-52
2022/04/19 02:06:00;;;;;;;;;4.50;4.50;;;;;12.20;54.51;100897.66;4972912;28;45260;-52
2022/04/19 02:08:26;;;;;;;;;3.75;3.75;;;;;12.10;54.42;100881.31;4974857;28;45375;-58
2022/04/19 02:10:52;;;;;;;;;3.00;3.00;;;;;12.13;54.45;100880.31;4972668;28;45232;-55
2022/04/19 02:13:17;;;;;;;;;4.00;4.00;;;;;11.98;54.58;100872.25;4972487;28;47380;-52
2022/04/19 02:15:45;;;;;;;;;5.00;4.00;;;;;11.95;54.46;100876.88;4968541;28;45320;-54
2022/04/19 02:18:10;;;;;;;;;4.00;4.00;;;;;11.81;54.60;100865.19;4972089;28;45379;-50
2022/04/19 02:20:36;;;;;;;;;8.25;7.00;;;;;12.03;55.48;100888.81;4971880;27;45418;-52
2022/04/19 02:23:02;;;;;;;;;3.50;3.50;;;;;11.99;56.07;100883.78;4971677;28;46290;-53
2022/04/19 02:25:28;;;;;;;;;6.25;6.00;;;;;11.91;56.34;100878.00;4974617;28;45408;-53
2022/04/19 02:27:54;;;;;;;;;10.25;7.00;;;;;11.96;56.49;100889.25;4974079;28;45361;-56
2022/04/19 02:30:19;;;;;;;;;14.25;8.00;;;;;11.57;56.30;100833.72;4972024;28;45628;-52
2022/04/19 02:32:47;;;;;;;;;10.00;6.75;;;;;11.92;56.12;100896.56;4973243;28;46741;-52
2022/04/19 02:35:15;;;;;;;;;2.50;1.50;;;;;11.87;56.40;100889.78;4972473;28;45243;-54
2022/04/19 02:37:51;;;;;;;;;6.25;6.00;;;;;11.86;56.31;100882.75;4972662;28;45588;-58
2022/04/19 02:40:19;;;;;;;;;5.50;5.50;;;;;11.74;56.51;100885.13;4955608;28;45868;-55
2022/04/19 02:42:46;;;;;;;;;9.75;4.00;;;;;11.69;56.56;100881.84;4962778;28;45666;-56
2022/04/19 02:45:12;;;;;;;;;6.25;6.00;;;;;11.57;56.65;100885.19;4974009;27;45398;-54
2022/04/19 02:47:38;;;;;;;;;3.75;3.75;;;;;11.40;56.96;100882.59;4967959;28;45654;-51
2022/04/19 02:50:05;;;;;;;;;5.50;3.75;;;;;11.36;56.78;100889.06;4963836;28;45295;-55
2022/04/19 02:52:31;;;;;;;;;7.50;7.00;;;;;11.39;56.70;100878.22;4971233;28;47196;-54
2022/04/19 02:54:56;;;;;;;;;4.50;4.50;;;;;11.47;56.34;100881.34;4967433;28;45264;-52
2022/04/19 02:57:22;;;;;;;;;6.25;6.25;;;;;11.42;56.04;100867.41;4974072;28;45297;-56
2022/04/19 02:59:48;;;;;;;;;5.50;3.00;;;;;11.50;56.03;100886.50;4975088;28;45695;-54
2022/04/19 03:02:14;;;;;;;;;6.25;6.25;;;;;11.43;56.62;100879.75;4964931;28;46904;-57
2022/04/19 03:04:40;;;;;;;;;7.00;5.50;;;;;11.38;56.26;100880.03;4971007;28;45276;-53
2022/04/19 03:07:05;;;;;;;;;7.00;5.00;;;;;11.36;56.08;100881.91;4971653;28;46527;-55
2022/04/19 03:09:31;;;;;;;;;4.25;4.25;;;;;11.34;55.78;100882.94;5027321;28;45343;-55
2022/04/19 03:11:57;;;;;;;;;10.50;4.50;;;;;11.28;55.88;100867.28;4964021;27;46078;-56
2022/04/19 03:14:22;;;;;;;;;6.00;4.25;;;;;11.24;55.33;100874.59;4970074;28;45544;-55
2022/04/19 03:16:48;;;;;;;;;3.50;3.50;;;;;11.13;55.94;100861.88;4976914;28;45441;-54
2022/04/19 03:19:14;;;;;;;;;4.50;2.50;;;;;11.19;55.70;100858.84;4977965;28;45361;-58
2022/04/19 03:21:40;;;;;;;;;8.00;4.25;;;;;11.33;54.93;100865.22;5004465;28;46470;-56
2022/04/19 03:29:34;;;;;;;;;2.50;2.00;;;;;11.23;54.83;100873.75;4972259;28;45338;-50
2022/04/19 03:32:00;;;;;;;;;5.50;4.00;;;;;11.14;54.92;100863.56;4975633;28;45442;-52
2022/04/19 03:34:26;;;;;;;;;3.00;2.25;;;;;11.08;55.10;100863.94;4975160;28;45567;-50
2022/04/19 03:36:52;;;;;;;;;7.00;3.00;;;;;11.15;55.60;100861.78;4976708;27;45353;-53
2022/04/19 03:39:18;;;;;;;;;3.00;2.75;;;;;11.16;55.27;100858.16;4972812;28;45521;-56
2022/04/19 03:41:44;;;;;;;;;2.50;2.00;;;;;11.28;55.49;100859.31;4957791;28;46916;-55
2022/04/19 03:44:11;;;;;;;;;6.25;3.00;;;;;11.32;55.14;100866.16;4975439;28;46751;-55
2022/04/19 03:47:07;;;;;;;;;2.50;1.50;;;;;11.35;55.66;100858.03;4973057;28;45405;-56
2022/04/19 03:49:24;;;;;;;;;3.50;3.50;;;;;11.42;55.02;100856.75;4965214;28;45288;-54
2022/04/19 03:51:49;;;;;;;;;9.25;3.75;;;;;11.38;55.31;100863.19;4975173;27;46383;-57
2022/04/19 03:54:15;;;;;;;;;7.00;5.75;;;;;11.45;55.70;100856.56;4974537;28;45331;-55
2022/04/19 03:56:40;;;;;;;;;3.00;3.00;;;;;11.40;55.76;100845.31;4975091;28;45525;-53
2022/04/19 03:59:06;;;;;;;;;2.75;2.75;;;;;11.38;55.78;100849.88;4972657;28;45526;-51
2022/04/19 04:01:31;;;;;;;;;4.50;4.50;;;;;11.33;56.15;100846.59;4967760;28;46331;-55
2022/04/19 04:03:57;;;;;;;;;8.50;3.75;;;;;11.30;56.45;100858.28;4976305;28;45318;-56
2022/04/19 04:06:22;;;;;;;;;6.00;3.00;;;;;11.15;56.46;100840.47;4976733;28;45408;-56
2022/04/19 04:08:47;;;;;;;;;3.75;3.75;;;;;11.13;56.79;100851.22;5001542;27;45409;-57
2022/04/19 04:11:13;;;;;;;;;5.50;4.25;;;;;11.08;57.43;100852.41;5063627;27;45475;-56
2022/04/19 04:13:38;;;;;;;;;1.00;1.00;;;;;10.97;57.47;100838.81;4976044;28;45343;-55
2022/04/19 04:16:04;;;;;;;;;6.50;4.25;;;;;10.94;58.03;100839.84;4973681;28;45531;-58
2022/04/19 04:18:31;;;;;;;;;9.00;4.25;;;;;11.00;58.23;100850.16;4975716;28;45341;-56
2022/04/19 04:20:56;;;;;;;;;6.50;5.50;;;;;11.08;57.12;100853.28;4973554;28;45283;-55
2022/04/19 04:23:22;;;;;;;;;8.50;5.50;;;;;11.13;57.14;100845.03;4974009;28;45393;-54
2022/04/19 04:25:47;;;;;;;;;4.00;4.00;;;;;11.20;57.92;100854.41;4987476;28;45659;-58
2022/04/19 04:28:12;;;;;;;;;3.25;3.25;;;;;11.22;57.82;100847.19;4974088;28;45616;-57
2022/04/19 04:30:38;;;;;;;;;5.25;3.00;;;;;11.18;57.99;100849.16;4976642;28;45374;-57
2022/04/19 04:33:03;;;;;;;;;6.75;3.00;;;;;11.18;58.00;100849.16;4972927;28;45337;-56
2022/04/19 04:35:29;;;;;;;;;3.75;3.75;;;;;11.14;58.15;100852.94;4974225;28;46695;-55
2022/04/19 04:37:54;;;;;;;;;4.25;4.25;;;;;11.18;58.21;100851.81;4975874;28;45311;-54
2022/04/19 04:40:20;;;;;;;;;4.25;4.25;;;;;11.07;58.64;100851.56;4975914;28;46510;-55
2022/04/19 04:42:45;;;;;;;;;5.00;5.00;;;;;11.00;58.83;100862.59;4973980;28;45337;-55
2022/04/19 04:45:11;;;;;;;;;5.75;4.25;;;;;10.98;58.79;100840.53;4975491;28;45322;-53
2022/04/19 04:50:20;;;;;;;;;4.75;4.00;;;;;11.09;57.95;100855.00;4974027;28;47658;-54
2022/04/19 04:52:46;;;;;;;;;3.00;3.00;;;;;11.15;58.19;100865.28;4974716;28;45404;-57
2022/04/19 04:55:12;;;;;;;;;7.00;5.00;;;;;11.18;58.54;100864.25;4975175;28;45440;-54
2022/04/19 04:57:37;;;;;;;;;4.75;4.25;;;;;11.12;58.30;100860.16;4974406;28;45525;-56
2022/04/19 05:00:04;;;;;;;;;5.25;5.00;;;;;11.08;59.34;100879.91;4974581;28;45890;-53
2022/04/19 05:02:30;;;;;;;;;7.00;4.50;;;;;10.95;60.14;100872.66;4990831;28;48850;-57
2022/04/19 05:04:55;;;;;;;;;3.50;3.50;;;;;10.99;59.98;100885.69;4975722;28;45423;-56
2022/04/19 05:07:21;;;;;;;;;8.00;4.00;;;;;10.91;60.59;100879.91;4996268;28;45672;-56
2022/04/19 05:09:46;;;;;;;;;6.00;5.00;;;;;10.78;61.33;100877.03;5012798;28;46278;-59
2022/04/19 05:12:11;;;;;;;;;5.00;4.25;;;;;10.73;60.63;100873.75;4985917;28;45276;-57
2022/04/19 05:14:37;;;;;;;;;6.50;4.75;;;;;10.71;61.69;100880.09;4997409;28;45293;-54
2022/04/19 05:17:03;;;;;;;;;4.50;2.75;;;;;10.62;61.69;100874.31;5039574;28;45574;-58
2022/04/19 05:19:28;;;;;;;;;2.75;2.75;;;;;10.59;62.05;100885.13;5077377;27;46384;-56
2022/04/19 05:21:53;;;;;;;;;5.00;2.75;;;;;10.64;61.57;100875.09;5006177;27;45287;-52
2022/04/19 05:24:19;;;;;;;;;5.50;4.75;;;;;10.72;61.31;100877.38;5005569;28;45420;-55
2022/04/19 05:26:44;;;;;;;;;8.75;5.75;;;;;10.78;60.96;100878.84;5078040;28;45497;-52
2022/04/19 05:29:10;;;;;;;;;5.75;4.50;;;;;10.85;60.96;100878.44;5076346;28;45297;-55
2022/04/19 05:31:36;;;;;;;;;5.75;5.75;;;;;10.69;62.58;100882.00;5020734;28;45705;-55
2022/04/19 05:34:02;;;;;;;;;7.25;7.25;;;;;10.61;62.02;100869.06;5014670;28;45500;-56
2022/04/19 05:36:27;;;;;;;;;8.75;6.00;;;;;10.76;62.30;100878.06;4968420;28;45522;-56
2022/04/19 05:38:53;;;;;;;;;3.25;3.25;;;;;10.78;62.28;100885.00;4955644;28;45348;-51
2022/04/19 05:41:20;;;;;;;;;5.25;4.50;;;;;10.56;62.49;100840.06;4956011;28;45308;-53
2022/04/19 05:43:47;;;;;;;;;7.25;3.00;;;;;10.56;63.00;100860.50;4953886;28;45365;-55
2022/04/19 05:46:13;;;;;;;;;7.75;7.00;;;;;10.66;63.21;100874.16;4964895;28;45566;-51
2022/04/19 05:48:38;;;;;;;;;5.00;3.00;;;;;10.74;63.23;100874.63;4973977;28;46349;-56
2022/04/19 05:51:03;;;;;;;;;9.50;6.00;;;;;10.92;61.90;100889.59;4963657;28;45288;-56
2022/04/19 05:53:29;;;;;;;;;5.00;3.75;;;;;10.92;61.14;100870.97;4955278;28;45429;-54
2022/04/19 05:55:54;;;;;;;;;4.00;4.00;;;;;10.88;62.42;100885.41;4956669;28;45391;-58
2022/04/19 05:58:20;;;;;;;;;8.00;6.00;;;;;10.63;63.52;100881.34;4955230;28;45188;-55
2022/04/19 06:00:46;;;;;;;;;6.00;5.00;;;;;10.60;64.56;100881.53;4956968;28;45393;-57
2022/04/19 06:05:55;;;;;;;;;6.00;3.25;;;;;10.49;65.03;100883.00;4957829;28;45419;-64
2022/04/19 06:08:21;;;;;;;;;8.25;6.75;;;;;10.59;65.30;100870.97;4976980;27;45495;-54
2022/04/19 06:10:48;;;;;;;;;6.00;5.75;;;;;10.71;64.57;100869.47;5043571;27;45398;-55
2022/04/19 06:13:13;;;;;;;;;6.00;5.50;;;;;10.85;63.73;100877.59;4986017;28;45375;-59
2022/04/19 06:15:39;;;;;;;;;8.00;5.25;;;;;11.01;64.74;100889.13;4955139;28;45446;-65
2022/04/19 06:18:05;;;;;;;;;7.75;4.75;;;;;11.11;63.52;100885.03;4969840;28;45430;-56
2022/04/19 06:20:30;;;;;;;;;7.50;6.00;;;;;11.17;62.62;100879.38;4972996;28;45382;-57
2022/04/19 06:22:55;;;;;;;;;5.75;3.25;;;;;11.08;63.24;100887.03;4973211;28;45518;-54
2022/04/19 06:25:21;;;;;;;;;6.50;6.00;;;;;11.08;63.02;100884.34;4968656;28;45629;-56
2022/04/19 06:27:47;;;;;;;;;7.00;7.00;;;;;11.06;63.72;100875.56;4954891;28;45250;-57
2022/04/19 06:30:12;;;;;;;;;8.00;8.00;;;;;11.16;63.44;100879.47;4954964;28;45190;-58
2022/04/19 06:32:38;;;;;;;;;7.25;7.25;;;;;11.25;63.37;100880.78;5055754;28;45297;-57
2022/04/19 06:35:04;;;;;;;;;10.00;10.00;;;;;11.23;63.70;100873.75;4954890;28;45635;-54
2022/04/19 06:37:32;;;;;;;;;7.25;7.25;;;;;11.30;63.69;100892.03;5055298;28;47273;-55
2022/04/19 06:40:04;;;;;;;;;6.25;6.25;;;;;11.25;63.47;100878.13;4953030;28;45433;-57
2022/04/19 06:42:29;;;;;;;;;13.00;8.00;;;;;11.36;62.79;100892.56;4952600;28;45209;-57
2022/04/19 06:44:55;;;;;;;;;7.00;6.75;;;;;11.16;63.13;100872.34;4969205;28;45270;-56
2022/04/19 06:47:21;;;;;;;;;5.75;4.00;;;;;11.31;63.16;100885.75;4952962;28;45423;-57
2022/04/19 06:49:46;;;;;;;;;8.00;8.00;;;;;11.32;63.14;100874.16;4954078;28;45427;-56
2022/04/19 06:52:12;;;;;;;;;11.25;9.00;;;;;11.16;63.30;100856.38;4954136;28;45371;-58
2022/04/19 06:54:37;;;;;;;;;9.00;7.25;;;;;11.13;63.28;100883.16;4954436;28;45391;-56
2022/04/19 06:57:03;;;;;;;;;10.75;10.25;;;;;11.03;63.77;100881.91;4953185;28;46013;-55
2022/04/19 06:59:29;;;;;;;;;13.25;11.25;;;;;11.01;64.27;100878.50;4971233;28;45447;-57
2022/04/19 07:01:54;;;;;;;;;13.25;7.00;;;;;10.93;63.78;100864.72;4972517;28;45409;-58
2022/04/19 07:04:23;;;;;;;;;12.50;9.50;;;;;11.04;63.72;100866.81;4973543;27;45535;-60
2022/04/19 07:06:49;;;;;;;;;8.75;7.75;;;;;11.08;63.96;100879.91;4973280;28;45311;-56
2022/04/19 07:09:15;;;;;;;;;13.25;10.00;;;;;10.94;63.92;100858.47;5016582;28;45797;-57
2022/04/19 07:11:40;;;;;;;;;17.50;11.50;;;;;11.15;64.17;100881.25;5077405;27;45523;-56
2022/04/19 07:14:06;;;;;;;;;15.00;12.00;;;;;11.20;63.50;100886.38;5058518;27;45507;-54
2022/04/19 07:16:32;;;;;;;;;13.75;11.75;;;;;11.22;63.47;100892.47;4978774;27;45322;-56
2022/04/19 07:18:58;;;;;;;;;6.00;6.00;;;;;11.23;63.28;100871.06;4991005;28;45463;-61
2022/04/19 07:26:52;;;;;;;;;8.00;7.00;;;;;11.56;61.30;100862.16;4973628;28;45685;-57
2022/04/19 07:29:18;;;;;;;;;11.75;9.00;;;;;11.76;61.68;100879.72;4973226;28;45521;-56
2022/04/19 07:31:46;;;;;;;;;16.75;12.00;;;;;11.86;60.79;100872.09;4954126;27;45458;-54
2022/04/19 07:34:12;;;;;;;;;15.50;11.25;;;;;11.94;60.52;100875.16;4953880;28;45529;-62
2022/04/19 07:36:39;;;;;;;;;14.00;11.25;;;;;11.99;60.60;100873.09;4953571;28;46166;-57
2022/04/19 07:39:06;;;;;;;;;16.25;8.50;;;;;12.04;60.33;100873.69;4953465;28;45252;-57
2022/04/19 07:41:32;;;;;;;;;14.00;12.00;;;;;11.99;60.27;100873.09;4953855;28;45351;-55
2022/04/19 07:43:57;;;;;;;;;12.25;8.50;;;;;11.96;60.17;100867.94;4954197;28;45338;-57
2022/04/19 07:46:23;;;;;;;;;15.75;11.00;;;;;11.91;60.49;100867.34;4960250;28;45422;-56
2022/04/19 07:48:50;;;;;;;;;12.75;11.25;;;;;12.04;60.26;100881.69;4972677;28;45369;-59
2022/04/19 07:51:16;;;;;;;;;12.75;11.75;;;;;12.05;60.16;100875.41;4973238;28;45239;-56
2022/04/19 07:53:42;;;;;;;;;11.50;10.00;;;;;12.16;59.50;100874.78;4973080;28;45350;-57
2022/04/19 07:56:08;;;;;;;;;9.00;9.00;;;;;12.27;59.10;100875.03;4973283;28;45371;-57
2022/04/19 07:58:33;;;;;;;;;11.00;10.25;;;;;12.33;59.03;100866.66;4973538;28;45249;-58
2022/04/19 08:01:04;;;;;;;;;13.75;12.00;;;;;12.36;59.04;100861.13;4976336;28;45310;-57
2022/04/19 08:03:30;;;;;;;;;11.25;9.00;;;;;12.50;58.28;100863.88;4975330;28;45444;-58
2022/04/19 08:05:56;;;;;;;;;9.75;8.75;;;;;12.56;57.97;100863.50;4975542;28;45293;-58
2022/04/19 08:08:22;;;;;;;;;15.75;9.00;;;;;12.73;57.50;100870.47;4981561;27;45299;-61
2022/04/19 08:10:48;;;;;;;;;14.00;10.25;;;;;12.75;56.93;100868.56;5077917;28;45404;-55
2022/04/19 08:13:14;;;;;;;;;12.50;8.50;;;;;12.74;56.75;100860.66;5018713;27;45353;-57
2022/04/19 08:15:40;;;;;;;;;14.25;13.00;;;;;12.82;56.60;100864.56;4974978;28;45937;-56
2022/04/19 08:18:06;;;;;;;;;14.25;11.50;;;;;12.75;56.32;100855.22;4975778;28;45276;-58
2022/04/19 08:20:31;;;;;;;;;7.75;7.75;;;;;12.66;56.84;100869.13;4976155;28;45515;-58
2022/04/19 08:22:57;;;;;;;;;12.00;10.25;;;;;12.64;56.60;100850.56;4975674;28;45338;-60
2022/04/19 08:25:22;;;;;;;;;14.75;12.25;;;;;12.82;56.52;100859.25;4975425;28;45918;-58
2022/04/19 08:27:48;;;;;;;;;17.25;12.50;;;;;12.98;56.04;100868.03;4974028;28;45430;-55
2022/04/19 08:30:18;;;;;;;;;10.00;9.50;;;;;13.00;56.22;100852.75;4969061;28;45478;-57
2022/04/19 08:32:45;;;;;;;;;13.00;12.50;;;;;13.05;55.89;100816.94;4956151;28;45365;-58
2022/04/19 08:35:11;;;;;;;;;15.50;15.00;;;;;13.52;54.71;100868.22;4953942;28;46228;-56
2022/04/19 08:37:37;;;;;;;;;10.75;9.50;;;;;13.50;54.18;100861.25;4955683;28;45362;-57
2022/04/19 08:40:08;;;;;;;;;30.00;18.75;;;;;13.76;53.52;100846.22;4955838;28;45378;-57
2022/04/19 08:42:40;;;;;;;;;13.50;10.50;;;;;14.07;54.21;100845.94;4956352;28;45557;-55
2022/04/19 08:45:11;;;;;;;;;10.25;10.00;;;;;14.32;50.84;100847.81;4954365;28;45396;-57
2022/04/19 08:47:39;;;;;;;;;15.00;9.00;;;;;14.48;51.47;100852.16;4967851;28;45371;-57
2022/04/19 08:50:11;;;;;;;;;11.00;10.00;;;;;14.75;51.05;100837.72;4975326;28;45424;-57
2022/04/19 08:52:38;;;;;;;;;12.67;10.00;;;;;15.11;50.52;100828.06;4973693;28;45374;-56
2022/04/19 08:57:50;;;;;;;;;12.00;10.67;;;;;15.59;48.25;100838.88;4974679;28;45452;-57
2022/04/19 09:00:16;;;;;;;;;11.00;10.33;;;;;15.63;48.16;100835.91;4974713;28;45424;-57
2022/04/19 09:02:42;;;;;;;;;13.00;12.00;;;;;15.89;46.20;100836.69;4968043;28;45642;-57
2022/04/19 09:05:18;;;;;;;;;11.67;6.67;;;;;16.10;46.91;100833.34;4955653;28;45192;-56
2022/04/19 09:07:45;;;;;;;;;11.33;9.00;;;;;16.32;44.75;100830.75;4955809;28;45212;-56
2022/04/19 09:10:16;;;;;;;;;9.33;9.33;;;;;16.59;45.37;100829.59;4953911;28;45330;-56
2022/04/19 09:13:07;;;;;;;;;6.67;6.67;;;;;17.02;45.50;100832.50;4956220;28;45342;-56
2022/04/19 09:15:39;;;;;;;;;8.67;8.33;;;;;17.20;43.73;100809.56;4957760;28;47243;-57
2022/04/19 09:18:24;;;;;;;;;9.33;9.33;;;;;17.60;44.84;100800.94;4976088;27;45263;-57
2022/04/19 09:20:51;;;;;;;;;12.00;10.67;;;;;17.87;42.61;100803.22;4974112;28;45169;-57
2022/04/19 09:23:16;;;;;;;;;12.67;9.00;;;;;18.13;40.56;100809.09;4989994;28;45610;-56
2022/04/19 09:25:43;;;;;;;;;9.33;9.33;;;;;18.23;41.50;100813.59;4975068;28;45987;-57
2022/04/19 09:28:20;;;;;;;;;11.33;7.00;;;;;18.63;41.89;100802.09;4975213;28;45469;-58
2022/04/19 09:30:49;;;;;;;;;15.00;14.33;;;;;18.90;40.97;100814.19;4973353;28;45494;-55
2022/04/19 09:33:24;;;;;;;;;11.33;11.33;;;;;19.11;38.82;100810.44;4975059;28;45232;-55
2022/04/19 09:35:58;;;;;;;;;12.33;8.00;;;;;18.99;39.41;100802.59;4972966;28;46050;-55
2022/04/19 09:38:35;;;;;;;;;19.67;17.67;;;;;19.48;39.70;100803.63;4960469;28;45414;-57
2022/04/19 09:41:02;;;;;;;;;20.00;20.00;;;;;19.73;37.66;100797.75;4955267;28;45276;-58
2022/04/19 09:43:28;;;;;;;;;21.00;21.00;;;;;19.79;38.92;100796.31;4955272;28;45521;-57
2022/04/19 09:45:58;;;;;;;;;23.67;22.00;;;;;20.01;37.43;100796.91;4955092;28;45330;-58
2022/04/19 09:48:24;;;;;;;;;10.00;8.33;;;;;20.16;38.33;100794.63;4955343;28;45296;-57
2022/04/19 09:51:12;;;;;;;;;11.00;9.67;;;;;20.44;36.70;100798.31;4954439;28;45285;-57
2022/04/19 09:53:44;;;;;;;;;8.33;8.33;;;;;20.35;37.01;100804.59;4953832;28;45899;-57
2022/04/19 09:56:11;;;;;;;;;12.33;10.67;;;;;20.67;37.76;100801.56;4954912;28;46075;-57
2022/04/19 09:58:41;;;;;;;;;8.67;7.67;;;;;20.78;36.99;100789.72;4955189;28;45391;-59
2022/04/19 10:01:07;;;;;;;;;12.33;11.67;;;;;20.48;36.00;100786.25;4955193;28;45500;-56
2022/04/19 10:09:06;;;;;;;;;11.33;5.67;;;;;20.06;38.50;100771.34;4998839;28;45220;-56
2022/04/19 10:11:32;;;;;;;;;8.00;8.00;;;;;19.82;37.67;100767.22;5047119;27;45445;-57
2022/04/19 10:13:58;;;;;;;;;8.67;7.67;;;;;19.43;38.23;100752.81;4953558;28;45641;-58
2022/04/19 10:16:24;;;;;;;;;7.00;7.00;;;;;19.34;38.63;100757.16;4954417;28;45426;-56
2022/04/19 10:18:50;;;;;;;;;10.00;7.67;;;;;19.14;39.64;100750.88;5055240;27;45411;-55
2022/04/19 10:21:23;;;;;;;;;8.33;8.33;;;;;19.18;39.96;100748.75;4954464;28;45465;-60
2022/04/19 10:23:49;;;;;;;;;16.67;10.33;;;;;19.21;40.28;100753.88;4952273;28;45378;-56
2022/04/19 10:26:22;;;;;;;;;11.33;8.00;;;;;19.31;40.28;100754.75;4954735;28;46365;-57
2022/04/19 10:28:50;;;;;;;;;14.00;10.00;;;;;19.09;40.04;100744.19;4960822;28;45528;-58
2022/04/19 10:31:31;;;;;;;;;11.33;11.33;;;;;18.79;40.60;100726.22;4973095;28;45463;-56
2022/04/19 10:34:06;;;;;;;;;9.00;9.00;;;;;18.66;40.55;100704.88;4974145;28;45267;-57
2022/04/19 10:36:39;;;;;;;;;12.33;12.33;;;;;18.91;40.55;100752.06;4973779;28;45290;-56
2022/04/19 10:39:10;;;;;;;;;10.33;5.67;;;;;18.93;41.17;100749.25;4972448;28;45397;-60
2022/04/19 10:41:58;;;;;;;;;12.00;11.33;;;;;18.74;40.83;100755.38;4973900;28;45406;-57
2022/04/19 10:44:29;;;;;;;;;8.67;8.67;;;;;18.45;41.63;100717.50;4972859;28;45558;-57
2022/04/19 10:47:03;;;;;;;;;9.00;8.67;;;;;18.66;41.75;100739.91;4973424;28;45435;-55
2022/04/19 10:49:28;;;;;;;;;14.67;11.67;;;;;18.42;41.56;100739.31;4973336;28;45400;-58
2022/04/19 10:51:59;;;;;;;;;19.67;12.00;;;;;18.46;42.32;100743.44;4973445;28;45448;-58
2022/04/19 10:55:02;;;;;;;;;12.67;11.33;;;;;18.58;41.96;100747.75;4972435;28;45307;-56
2022/04/19 11:00:34;;;;;;;;;23.00;15.00;;;;;18.78;42.17;100736.13;4961978;28;45287;-58
2022/04/19 11:03:05;;;;;;;;;15.00;11.00;;;;;18.49;42.05;100735.06;4957003;28;45422;-56
2022/04/19 11:05:41;;;;;;;;;13.67;12.33;;;;;18.54;42.41;100735.56;4952875;28;45516;-57
2022/04/19 11:08:30;;;;;;;;;12.00;12.00;;;;;18.60;42.43;100735.00;4954497;28;46011;-58
2022/04/19 11:10:56;;;;;;;;;19.00;17.67;;;;;18.67;42.76;100738.91;4952956;28;45412;-58
2022/04/19 11:13:22;;;;;;;;;16.00;15.00;;;;;18.66;42.83;100731.81;4954108;28;45312;-57
2022/04/19 11:16:13;;;;;;;;;12.00;12.00;;;;;18.56;42.70;100728.19;4953918;28;45531;-58
2022/04/19 11:18:39;;;;;;;;;14.00;12.67;;;;;18.53;43.07;100720.38;4975158;28;45419;-58
2022/04/19 11:21:15;;;;;;;;;23.00;19.00;;;;;18.52;42.93;100729.44;4973200;28;45249;-58
2022/04/19 11:23:43;;;;;;;;;14.33;10.33;;;;;18.57;42.36;100721.81;4973894;28;45291;-56
2022/04/19 11:26:28;;;;;;;;;17.00;13.33;;;;;18.78;42.51;100719.13;4975184;28;45580;-56
2022/04/19 11:29:09;;;;;;;;;15.33;14.00;;;;;19.09;41.44;100715.38;4992354;27;46694;-59
2022/04/19 11:31:36;;;;;;;;;15.00;12.00;;;;;19.22;41.57;100707.03;4970042;28;45411;-57
2022/04/19 11:34:13;;;;;;;;;16.33;13.33;;;;;19.29;41.01;100701.97;4953348;28;45323;-55
2022/04/19 11:36:39;;;;;;;;;16.33;11.00;;;;;19.51;41.11;100711.63;4955413;28;45403;-56
2022/04/19 11:39:05;;;;;;;;;15.00;15.00;;;;;19.67;40.46;100711.97;4956228;28;46014;-56
2022/04/19 11:47:02;;;;;;;;;14.00;13.67;;;;;19.98;40.17;100702.72;4959519;28;45450;-58
2022/04/19 11:49:35;;;;;;;;;19.67;14.33;;;;;20.17;39.82;100704.53;4975566;28;45394;-56
2022/04/19 11:52:07;;;;;;;;;16.00;12.67;;;;;20.25;38.94;100703.81;4975948;28;45350;-58
2022/04/19 11:54:33;;;;;;;;;11.00;9.33;;;;;20.32;38.63;100713.03;4976071;28;45601;-59
2022/04/19 11:57:07;;;;;;;;;14.67;14.33;;;;;20.17;38.79;100709.91;4976539;28;45283;-57